createdAt,value
2022-09-06T00:01:23.275Z,101235.81
2022-09-06T00:03:50.517Z,101246.19
2022-09-06T00:06:18.957Z,101243.66
2022-09-06T00:08:47.501Z,101251.03
2022-09-06T00:11:15.558Z,101262.78
2022-09-06T00:13:42.082Z,100947.97
2022-09-06T00:16:17.366Z,101290.38
2022-09-06T00:18:44.821Z,101195.06
2022-09-06T00:21:18.098Z,101230.88
2022-09-06T00:23:44.522Z,101256.31
2022-09-06T00:26:11.350Z,101295.06
2022-09-06T00:28:38.578Z,101221.97
2022-09-06T00:31:13.628Z,101043.44
2022-09-06T00:33:40.779Z,101167.03
2022-09-06T00:36:08.855Z,101334.44
2022-09-06T00:38:35.541Z,100921.25
2022-09-06T00:41:02.603Z,101351.75
2022-09-06T00:43:29.146Z,101346.09
2022-09-06T00:45:56.177Z,101349.50
2022-09-06T00:48:23.515Z,101069.16
2022-09-06T00:50:56.003Z,100776.09
2022-09-06T00:53:23.367Z,101113.84
2022-09-06T00:55:50.027Z,101308.38
2022-09-06T00:58:16.768Z,101367.06
2022-09-06T01:00:44.873Z,101082.94
2022-09-06T01:03:14.388Z,101272.47
2022-09-06T01:05:58.583Z,101247.09
2022-09-06T01:08:37.481Z,101303.75
2022-09-06T01:11:22.580Z,101308.66
2022-09-06T01:13:57.271Z,101222.75
2022-09-06T01:16:42.605Z,101317.06
2022-09-06T01:19:23.242Z,101036.13
2022-09-06T01:21:49.677Z,101309.09
2022-09-06T01:24:34.728Z,101315.44
2022-09-06T01:27:20.034Z,101335.13
2022-09-06T01:29:52.939Z,101161.53
2022-09-06T01:32:40.625Z,101313.50
2022-09-06T01:35:19.158Z,101283.47
2022-09-06T01:37:45.810Z,101144.25
2022-09-06T01:40:12.354Z,100868.47
2022-09-06T01:42:41.186Z,101098.44
2022-09-06T01:45:51.253Z,101312.19
2022-09-06T01:48:27.214Z,101115.03
2022-09-06T01:51:04.974Z,101029.78
2022-09-06T01:53:43.371Z,101320.13
2022-09-06T01:56:29.880Z,101318.09
2022-09-06T01:59:16.071Z,101325.31
2022-09-06T02:02:02.309Z,101311.41
2022-09-06T02:04:36.563Z,101323.41
2022-09-06T02:07:16.323Z,101323.88
2022-09-06T02:09:48.390Z,101197.03
2022-09-06T02:12:18.786Z,100578.41
2022-09-06T02:15:06.569Z,101294.59
2022-09-06T02:17:38.850Z,101292.16
2022-09-06T02:20:17.879Z,101079.56
2022-09-06T02:22:46.773Z,101079.63
2022-09-06T02:25:20.751Z,101279.06
2022-09-06T02:27:47.589Z,101234.53
2022-09-06T02:30:14.142Z,101076.66
2022-09-06T02:32:48.308Z,101246.69
2022-09-06T02:35:16.648Z,101129.28
2022-09-06T02:37:43.701Z,100984.72
2022-09-06T02:40:11.794Z,101051.34
2022-09-06T02:42:39.868Z,100935.19
2022-09-06T02:45:06.761Z,101099.03
2022-09-06T02:47:33.171Z,100940.09
2022-09-06T02:49:59.622Z,101090.22
2022-09-06T02:52:26.087Z,100932.78
2022-09-06T02:54:52.570Z,101205.75
2022-09-06T02:57:19.061Z,100930.44
2022-09-06T02:59:46.266Z,100948.91
2022-09-06T03:02:12.809Z,100940.09
2022-09-06T03:04:39.318Z,101205.28
2022-09-06T03:07:05.875Z,101013.53
2022-09-06T03:09:32.376Z,101106.25
2022-09-06T03:11:58.871Z,100903.72
2022-09-06T03:14:25.355Z,101059.47
2022-09-06T03:16:51.829Z,100974.81
2022-09-06T03:19:20.040Z,101171.56
2022-09-06T03:21:46.538Z,100919.66
2022-09-06T03:24:13.021Z,101069.91
2022-09-06T03:26:39.561Z,101158.59
2022-09-06T03:29:06.411Z,101181.22
2022-09-06T03:31:32.889Z,101201.16
2022-09-06T03:33:59.954Z,101177.66
2022-09-06T03:36:26.466Z,101170.03
2022-09-06T03:38:54.091Z,100881.25
2022-09-06T03:41:20.578Z,101179.97
2022-09-06T03:43:46.986Z,101128.31
2022-09-06T03:46:13.642Z,100906.78
2022-09-06T03:48:40.331Z,100892.16
2022-09-06T03:51:06.854Z,101019.81
2022-09-06T03:53:33.467Z,101207.56
2022-09-06T03:56:00.077Z,101097.06
2022-09-06T03:58:30.370Z,101063.50
2022-09-06T04:01:08.988Z,101096.03
2022-09-06T04:03:36.957Z,101051.81
2022-09-06T04:06:05.005Z,100994.06
2022-09-06T04:08:32.305Z,101038.72
2022-09-06T04:10:59.534Z,101079.50
2022-09-06T04:13:28.108Z,100999.97
2022-09-06T04:15:54.635Z,100987.84
2022-09-06T04:18:22.402Z,101080.28
2022-09-06T04:20:50.694Z,101148.53
2022-09-06T04:23:18.227Z,101132.44
2022-09-06T04:25:52.414Z,101121.41
2022-09-06T04:28:19.633Z,101153.09
2022-09-06T04:30:52.876Z,101164.78
2022-09-06T04:33:20.436Z,100900.44
2022-09-06T04:35:50.463Z,101162.97
2022-09-06T04:38:17.052Z,100824.91
2022-09-06T04:40:43.563Z,101175.28
2022-09-06T04:43:09.952Z,100969.34
2022-09-06T04:45:36.633Z,100987.09
2022-09-06T04:48:03.369Z,101093.84
2022-09-06T04:50:29.876Z,100889.94
2022-09-06T04:52:56.381Z,100780.91
2022-09-06T04:55:22.860Z,100959.22
2022-09-06T04:57:51.265Z,101141.69
2022-09-06T05:00:18.332Z,101156.88
2022-09-06T05:02:45.166Z,100948.34
2022-09-06T05:05:11.646Z,100970.16
2022-09-06T05:07:38.109Z,100946.22
2022-09-06T05:10:05.194Z,101104.13
2022-09-06T05:12:31.675Z,101010.88
2022-09-06T05:14:58.207Z,101066.19
2022-09-06T05:17:24.671Z,101035.69
2022-09-06T05:19:51.188Z,101046.31
2022-09-06T05:22:17.706Z,101007.94
2022-09-06T05:24:44.874Z,101167.31
2022-09-06T05:27:12.643Z,101157.38
2022-09-06T05:29:39.085Z,101058.03
2022-09-06T05:32:05.690Z,101158.53
2022-09-06T05:34:32.218Z,101005.84
2022-09-06T05:36:58.669Z,101161.25
2022-09-06T05:39:25.156Z,101077.88
2022-09-06T05:41:51.673Z,101099.91
2022-09-06T05:44:18.118Z,101170.41
2022-09-06T05:46:45.908Z,101035.09
2022-09-06T05:49:13.310Z,101154.47
2022-09-06T05:51:40.326Z,101017.38
2022-09-06T05:54:07.939Z,101144.31
2022-09-06T05:56:34.426Z,101037.19
2022-09-06T05:59:00.906Z,101139.13
2022-09-06T06:01:30.497Z,101145.06
2022-09-06T06:04:00.077Z,101136.53
2022-09-06T06:06:29.329Z,101136.16
2022-09-06T06:08:56.330Z,101148.25
2022-09-06T06:11:23.213Z,101085.75
2022-09-06T06:13:50.589Z,101082.66
2022-09-06T06:16:19.875Z,101140.25
2022-09-06T06:18:51.280Z,101137.53
2022-09-06T06:21:21.630Z,101135.34
2022-09-06T06:23:54.742Z,100881.59
2022-09-06T06:26:22.321Z,101100.19
2022-09-06T06:28:49.016Z,100911.47
2022-09-06T06:31:15.680Z,101119.78
2022-09-06T06:33:42.560Z,101041.28
2022-09-06T06:36:14.889Z,101120.00
2022-09-06T06:38:45.819Z,101113.25
2022-09-06T06:41:14.511Z,101052.34
2022-09-06T06:43:41.188Z,101116.31
2022-09-06T06:46:09.010Z,101084.53
2022-09-06T06:48:43.288Z,101105.38
2022-09-06T06:51:15.200Z,101109.22
2022-09-06T06:53:41.771Z,100992.84
2022-09-06T06:56:20.185Z,101061.69
2022-09-06T06:58:48.773Z,101108.13
2022-09-06T07:01:16.449Z,100991.31
2022-09-06T07:03:43.150Z,101011.91
2022-09-06T07:08:42.380Z,101058.94
2022-09-06T07:11:11.338Z,101108.41
2022-09-06T07:13:38.193Z,101101.28
2022-09-06T07:16:12.425Z,101102.22
2022-09-06T07:18:42.379Z,101074.25
2022-09-06T07:24:06.405Z,101051.59
2022-09-06T07:26:34.965Z,101099.00
2022-09-06T07:29:03.674Z,101093.69
2022-09-06T07:34:19.373Z,100912.84
2022-09-06T07:36:45.862Z,101094.38
2022-09-06T07:39:12.600Z,101035.09
2022-09-06T07:41:39.015Z,101056.84
2022-09-06T07:44:05.494Z,101107.06
2022-09-06T07:46:32.139Z,101102.97
2022-09-06T07:48:58.710Z,101091.56
2022-09-06T07:51:25.199Z,101100.56
2022-09-06T07:54:07.442Z,101062.59
2022-09-06T07:56:41.910Z,101105.94
2022-09-06T07:59:09.291Z,101105.81
2022-09-06T08:01:40.065Z,100932.38
2022-09-06T08:04:15.146Z,101108.78
2022-09-06T08:09:30.463Z,101097.59
2022-09-06T08:11:57.019Z,101097.50
2022-09-06T08:14:23.465Z,101104.06
2022-09-06T08:16:50.411Z,101006.91
2022-09-06T08:19:18.239Z,100831.72
2022-09-06T08:21:44.670Z,101009.59
2022-09-06T08:24:11.274Z,101099.81
2022-09-06T08:26:40.390Z,101088.66
2022-09-06T08:29:08.627Z,101081.69
2022-09-06T08:31:37.550Z,101087.66
2022-09-06T08:34:04.095Z,100868.13
2022-09-06T08:36:31.459Z,101077.25
2022-09-06T08:38:59.322Z,100973.47
2022-09-06T08:41:29.448Z,101045.00
2022-09-06T08:47:04.236Z,101077.22
2022-09-06T08:49:33.801Z,101075.28
2022-09-06T08:52:23.088Z,101071.94
2022-09-06T08:55:16.476Z,101062.25
2022-09-06T08:57:53.755Z,101038.56
2022-09-06T09:00:20.785Z,100896.16
2022-09-06T09:02:52.398Z,101061.09
2022-09-06T09:05:24.144Z,100994.88
2022-09-06T09:08:05.047Z,101000.97
2022-09-06T09:10:40.461Z,101044.06
2022-09-06T09:13:16.026Z,101035.66
2022-09-06T09:15:42.567Z,100854.19
2022-09-06T09:18:09.082Z,101044.59
2022-09-06T09:20:37.967Z,100768.19
2022-09-06T09:23:04.507Z,100928.59
2022-09-06T09:25:32.861Z,101028.63
2022-09-06T09:28:00.240Z,101022.22
2022-09-06T09:30:47.659Z,101031.94
2022-09-06T09:33:29.754Z,101026.88
2022-09-06T09:35:59.430Z,101024.03
2022-09-06T09:38:32.833Z,101018.41
2022-09-06T09:41:05.683Z,101016.34
2022-09-06T09:43:39.122Z,100983.34
2022-09-06T09:46:35.643Z,101009.47
2022-09-06T09:49:28.765Z,101012.19
2022-09-06T09:52:12.155Z,101011.72
2022-09-06T09:54:42.551Z,100998.53
2022-09-06T09:57:12.105Z,101030.84
2022-09-06T10:00:01.008Z,100838.72
2022-09-06T10:02:32.398Z,100988.81
2022-09-06T10:05:17.153Z,100992.19
2022-09-06T10:07:49.094Z,100960.03
2022-09-06T10:10:27.734Z,100969.50
2022-09-06T10:13:30.131Z,100835.00
2022-09-06T10:16:03.178Z,100845.19
2022-09-06T10:18:39.419Z,101004.34
2022-09-06T10:21:10.043Z,101001.81
2022-09-06T10:27:01.085Z,101004.88
2022-09-06T10:29:52.943Z,100998.72
2022-09-06T10:32:48.159Z,101009.59
2022-09-06T10:35:31.619Z,100882.50
2022-09-06T10:38:32.335Z,101002.09
2022-09-06T10:41:26.469Z,100993.28
2022-09-06T10:44:01.399Z,100986.38
2022-09-06T10:46:29.541Z,100971.44
2022-09-06T10:48:56.562Z,101009.16
2022-09-06T10:51:25.981Z,101003.00
2022-09-06T10:53:57.446Z,101003.16
2022-09-06T10:56:42.241Z,101005.50
2022-09-06T11:02:20.763Z,100996.41
2022-09-06T11:10:37.721Z,101001.78
2022-09-06T11:13:18.512Z,100993.69
2022-09-06T11:16:05.003Z,100997.34
2022-09-06T11:18:41.734Z,100993.88
2022-09-06T11:21:47.335Z,101001.31
2022-09-06T11:24:42.261Z,100996.03
2022-09-06T11:27:23.551Z,101008.09
2022-09-06T11:29:56.391Z,101002.66
2022-09-06T11:32:43.167Z,101000.00
2022-09-06T11:35:22.670Z,100991.19
2022-09-06T11:38:00.445Z,100838.41
2022-09-06T11:40:29.895Z,100934.03
2022-09-06T11:42:58.593Z,101006.78
2022-09-06T11:45:46.689Z,100998.28
2022-09-06T11:48:34.457Z,101008.78
2022-09-06T11:51:06.685Z,100869.47
2022-09-06T11:53:48.483Z,100998.91
2022-09-06T11:56:30.482Z,100996.00
2022-09-06T11:59:23.660Z,101012.84
2022-09-06T12:02:31.683Z,100986.28
2022-09-06T12:05:01.163Z,100990.84
2022-09-06T12:07:29.483Z,100975.47
2022-09-06T12:09:56.098Z,100853.63
2022-09-06T12:12:46.693Z,100981.16
2022-09-06T12:15:26.477Z,100980.56
2022-09-06T12:17:53.056Z,100972.88
2022-09-06T12:20:47.731Z,100975.59
2022-09-06T12:23:35.887Z,100973.50
2022-09-06T12:26:07.378Z,100816.91
2022-09-06T12:28:47.271Z,100939.34
2022-09-06T12:31:28.687Z,100979.31
2022-09-06T12:33:56.965Z,100975.63
2022-09-06T12:36:29.722Z,100973.94
2022-09-06T12:39:08.628Z,100771.78
2022-09-06T12:41:43.457Z,100977.47
2022-09-06T12:44:11.350Z,100902.22
2022-09-06T12:46:39.890Z,100902.88
2022-09-06T12:49:10.357Z,100969.81
2022-09-06T12:51:38.970Z,100941.84
2022-09-06T12:54:26.521Z,100802.59
2022-09-06T12:56:53.771Z,100975.25
2022-09-06T12:59:27.264Z,100934.31
2022-09-06T13:02:05.063Z,100971.66
2022-09-06T13:04:42.569Z,100979.59
2022-09-06T13:07:12.879Z,100979.75
2022-09-06T13:09:44.109Z,100976.44
2022-09-06T13:12:26.159Z,100971.47
2022-09-06T13:14:54.949Z,100970.84
2022-09-06T13:17:29.577Z,100974.59
2022-09-06T13:19:58.135Z,100982.94
2022-09-06T13:22:42.956Z,100979.19
2022-09-06T13:25:23.162Z,100921.00
2022-09-06T13:27:51.758Z,100964.16
2022-09-06T13:30:41.992Z,100971.00
2022-09-06T13:33:24.354Z,100968.91
2022-09-06T13:36:05.198Z,100987.97
2022-09-06T13:38:38.636Z,100968.72
2022-09-06T13:41:15.758Z,100810.97
2022-09-06T13:43:45.668Z,100906.38
2022-09-06T13:46:12.551Z,100810.53
2022-09-06T13:48:39.462Z,100870.94
2022-09-06T13:51:07.867Z,100969.38
2022-09-06T13:53:35.271Z,100963.13
2022-09-06T13:56:02.014Z,100962.88
2022-09-06T13:58:29.754Z,100969.31
2022-09-06T14:00:56.914Z,101010.47
2022-09-06T14:03:31.022Z,100811.78
2022-09-06T14:06:00.135Z,100978.06
2022-09-06T14:08:38.870Z,101009.78
2022-09-06T14:11:14.122Z,100986.59
2022-09-06T14:13:40.569Z,100984.94
2022-09-06T14:16:07.168Z,100825.28
2022-09-06T14:18:33.939Z,100999.81
2022-09-06T14:21:00.430Z,100992.28
2022-09-06T14:23:27.340Z,100928.28
2022-09-06T14:25:58.300Z,101011.94
2022-09-06T14:28:25.411Z,100760.28
2022-09-06T14:30:54.430Z,100995.47
2022-09-06T14:33:21.433Z,100967.72
2022-09-06T14:35:48.640Z,101017.06
2022-09-06T14:38:15.553Z,101012.50
2022-09-06T14:40:45.521Z,101001.22
2022-09-06T14:43:12.055Z,100993.78
2022-09-06T14:45:38.643Z,100849.06
2022-09-06T14:48:05.664Z,100980.22
2022-09-06T14:50:32.198Z,100887.41
2022-09-06T14:52:59.116Z,100988.56
2022-09-06T14:55:25.738Z,100957.72
2022-09-06T14:57:52.282Z,100920.56
2022-09-06T15:00:18.913Z,100977.91
2022-09-06T15:02:45.413Z,100979.81
2022-09-06T15:05:12.002Z,100972.50
2022-09-06T15:07:38.466Z,100926.66
2022-09-06T15:10:05.350Z,100970.00
2022-09-06T15:12:32.334Z,100963.56
2022-09-06T15:14:59.061Z,100973.94
2022-09-06T15:17:25.489Z,100965.59
2022-09-06T15:19:52.108Z,100974.38
2022-09-06T15:22:18.531Z,100953.06
2022-09-06T15:24:45.181Z,100795.47
2022-09-06T15:27:11.791Z,100962.09
2022-09-06T15:29:38.447Z,100944.16
2022-09-06T15:32:05.005Z,100924.72
2022-09-06T15:34:31.479Z,100961.56
2022-09-06T15:36:57.902Z,100914.66
2022-09-06T15:39:24.508Z,100943.25
2022-09-06T15:41:51.529Z,100802.97
2022-09-06T15:44:20.654Z,100940.66
2022-09-06T15:46:52.417Z,100951.13
2022-09-06T15:49:28.100Z,100939.94
2022-09-06T15:51:56.498Z,100937.59
2022-09-06T15:54:41.964Z,100934.06
2022-09-06T15:57:08.765Z,100859.56
2022-09-06T15:59:35.194Z,100935.03
2022-09-06T16:02:01.805Z,100933.19
2022-09-06T16:04:28.232Z,100935.50
2022-09-06T16:06:54.836Z,100896.38
2022-09-06T16:09:21.231Z,100943.94
2022-09-06T16:11:47.930Z,100943.38
2022-09-06T16:14:15.746Z,100944.75
2022-09-06T16:16:43.372Z,100938.44
2022-09-06T16:19:12.327Z,100887.28
2022-09-06T16:21:41.606Z,100947.22
2022-09-06T16:24:11.106Z,100763.34
2022-09-06T16:26:40.964Z,100952.97
2022-09-06T16:29:09.413Z,100943.75
2022-09-06T16:31:39.998Z,100948.28
2022-09-06T16:34:11.561Z,100948.41
2022-09-06T16:36:38.662Z,100789.41
2022-09-06T16:39:06.356Z,100945.31
2022-09-06T16:41:42.190Z,100944.25
2022-09-06T16:44:15.933Z,100947.50
2022-09-06T16:46:47.893Z,100873.94
2022-09-06T16:49:17.012Z,100971.13
2022-09-06T16:51:44.002Z,100800.41
2022-09-06T16:54:11.081Z,100923.94
2022-09-06T16:56:38.890Z,100795.44
2022-09-06T16:59:07.950Z,100908.59
2022-09-06T17:01:36.977Z,100938.38
2022-09-06T17:04:04.004Z,100949.53
2022-09-06T17:06:31.302Z,100955.78
2022-09-06T17:08:58.794Z,100953.63
2022-09-06T17:11:25.997Z,100950.00
2022-09-06T17:13:54.302Z,100933.09
2022-09-06T17:16:40.233Z,100861.16
2022-09-06T17:19:08.072Z,100950.81
2022-09-06T17:21:34.591Z,100894.34
2022-09-06T17:24:04.500Z,100948.44
2022-09-06T17:26:33.350Z,100949.19
2022-09-06T17:29:00.149Z,100950.38
2022-09-06T17:31:30.447Z,100951.00
2022-09-06T17:33:57.311Z,100932.34
2022-09-06T17:36:27.971Z,100846.03
2022-09-06T17:39:00.593Z,100941.47
2022-09-06T17:41:49.994Z,100798.34
2022-09-06T17:44:20.475Z,100896.09
2022-09-06T17:47:08.874Z,100923.59
2022-09-06T17:49:34.939Z,100935.50
2022-09-06T17:52:04.614Z,100931.00
2022-09-06T17:54:34.610Z,100934.78
2022-09-06T17:57:01.073Z,100945.44
2022-09-06T17:59:35.045Z,100950.75
2022-09-06T18:02:02.635Z,100758.78
2022-09-06T18:04:29.379Z,100935.00
2022-09-06T18:06:55.825Z,100931.50
2022-09-06T18:09:22.466Z,100947.84
2022-09-06T18:11:49.174Z,100926.56
2022-09-06T18:14:20.921Z,100764.94
2022-09-06T18:16:49.277Z,100937.91
2022-09-06T18:19:17.449Z,100918.00
2022-09-06T18:21:44.135Z,100877.97
2022-09-06T18:24:13.722Z,100923.97
2022-09-06T18:26:41.600Z,100937.91
2022-09-06T18:29:12.199Z,100901.38
2022-09-06T18:31:39.927Z,100905.75
2022-09-06T18:34:08.057Z,100941.03
2022-09-06T18:36:35.381Z,100938.50
2022-09-06T18:39:04.258Z,100734.38
2022-09-06T18:41:51.177Z,100935.31
2022-09-06T18:44:18.074Z,100932.94
2022-09-06T18:46:44.955Z,100948.06
2022-09-06T18:49:14.447Z,100894.34
2022-09-06T18:51:41.703Z,100932.63
2022-09-06T18:54:09.128Z,100738.63
2022-09-06T18:56:35.792Z,100925.72
2022-09-06T18:59:02.731Z,100935.94
2022-09-06T19:01:35.444Z,100936.97
2022-09-06T19:04:03.885Z,100947.03
2022-09-06T19:06:32.700Z,100950.91
2022-09-06T19:09:02.275Z,100782.66
2022-09-06T19:11:29.542Z,100942.66
2022-09-06T19:13:57.533Z,100936.13
2022-09-06T19:16:29.353Z,100936.56
2022-09-06T19:18:57.138Z,100933.69
2022-09-06T19:21:25.668Z,100927.97
2022-09-06T19:24:01.235Z,100932.63
2022-09-06T19:26:31.419Z,100923.25
2022-09-06T19:29:00.270Z,100923.63
2022-09-06T19:31:32.217Z,100929.16
2022-09-06T19:33:59.380Z,100885.84
2022-09-06T19:36:28.430Z,100908.13
2022-09-06T19:39:05.101Z,100753.75
2022-09-06T19:41:35.649Z,100907.09
2022-09-06T19:44:05.461Z,100879.44
2022-09-06T19:46:32.043Z,100763.38
2022-09-06T19:48:58.825Z,100853.44
2022-09-06T19:51:25.891Z,100886.13
2022-09-06T19:53:57.234Z,100916.69
2022-09-06T19:56:32.827Z,100894.69
2022-09-06T19:59:03.988Z,100727.00
2022-09-06T20:01:33.028Z,100890.50
2022-09-06T20:04:02.855Z,100904.44
2022-09-06T20:06:30.932Z,100867.53
2022-09-06T20:08:59.133Z,100887.84
2022-09-06T20:11:32.807Z,100897.56
2022-09-06T20:14:00.834Z,100893.38
2022-09-06T20:16:28.248Z,100877.03
2022-09-06T20:18:55.200Z,100874.34
2022-09-06T20:21:22.528Z,100906.22
2022-09-06T20:23:54.001Z,100862.06
2022-09-06T20:26:23.980Z,100906.00
2022-09-06T20:28:59.045Z,100640.63
2022-09-06T20:31:28.902Z,100906.97
2022-09-06T20:33:56.294Z,100919.72
2022-09-06T20:36:23.456Z,100895.22
2022-09-06T20:38:50.609Z,100906.63
2022-09-06T20:41:19.829Z,100776.63
2022-09-06T20:43:51.400Z,100919.72
2022-09-06T20:46:19.333Z,100906.47
2022-09-06T20:48:46.405Z,100909.97
2022-09-06T20:51:21.116Z,100872.84
2022-09-06T20:53:52.748Z,100890.00
2022-09-06T20:56:22.662Z,100920.19
2022-09-06T20:58:51.119Z,100904.22
2022-09-06T21:01:23.120Z,100918.16
2022-09-06T21:03:56.046Z,100733.03
2022-09-06T21:06:24.882Z,100767.78
2022-09-06T21:08:52.433Z,100898.56
2022-09-06T21:11:22.488Z,100915.84
2022-09-06T21:13:51.947Z,100710.09
2022-09-06T21:16:24.858Z,100906.03
2022-09-06T21:18:53.402Z,100922.47
2022-09-06T21:21:36.767Z,100921.28
2022-09-06T21:24:41.560Z,100917.44
2022-09-06T21:27:19.399Z,100922.75
2022-09-06T21:29:50.176Z,100924.94
2022-09-06T21:32:19.830Z,100919.38
2022-09-06T21:35:27.206Z,100910.13
2022-09-06T21:38:18.507Z,100912.66
2022-09-06T21:40:52.177Z,100873.72
2022-09-06T21:43:54.988Z,100892.66
2022-09-06T21:46:37.737Z,100798.06
2022-09-06T21:49:42.212Z,100869.47
2022-09-06T21:55:53.147Z,100863.56
2022-09-06T21:58:26.387Z,100858.53
2022-09-06T22:01:30.284Z,100849.28
2022-09-06T22:04:21.149Z,100847.09
2022-09-06T22:07:01.214Z,100852.81
2022-09-06T22:09:56.760Z,100624.69
2022-09-06T22:12:24.124Z,100805.78
2022-09-06T22:14:50.806Z,100828.97
2022-09-06T22:17:20.939Z,100822.97
2022-09-06T22:19:48.035Z,100844.19
2022-09-06T22:22:14.706Z,100800.59
2022-09-06T22:24:41.150Z,100517.13
2022-09-06T22:27:07.625Z,100762.94
2022-09-06T22:29:34.039Z,100802.00
2022-09-06T22:32:02.974Z,100790.25
2022-09-06T22:34:30.272Z,100758.66
2022-09-06T22:36:56.753Z,100775.44
2022-09-06T22:39:23.241Z,100814.09
2022-09-06T22:41:49.845Z,100797.78
2022-09-06T22:44:16.371Z,100797.88
2022-09-06T22:46:43.014Z,100788.16
2022-09-06T22:49:09.571Z,100782.50
2022-09-06T22:51:36.185Z,100784.59
2022-09-06T22:54:03.185Z,100779.59
2022-09-06T22:56:29.692Z,100791.44
2022-09-06T22:58:56.313Z,100628.34
2022-09-06T23:01:23.165Z,100713.84
2022-09-06T23:03:50.572Z,100632.63
2022-09-06T23:06:17.165Z,100835.78
2022-09-06T23:08:43.734Z,100962.44
2022-09-06T23:11:13.221Z,101007.06
2022-09-06T23:13:43.791Z,101036.19
2022-09-06T23:16:18.719Z,101004.31
2022-09-06T23:18:46.307Z,100993.03
2022-09-06T23:21:16.074Z,100815.88
2022-09-06T23:23:42.714Z,100998.81
2022-09-06T23:26:11.634Z,100985.91
2022-09-06T23:28:39.169Z,100989.28
2022-09-06T23:31:07.778Z,101003.59
2022-09-06T23:33:37.652Z,101007.38
2022-09-06T23:36:14.715Z,101026.56
2022-09-06T23:38:41.949Z,101041.69
2022-09-06T23:41:10.245Z,100967.00
2022-09-06T23:43:37.670Z,101043.41
2022-09-06T23:46:05.059Z,101006.72
2022-09-06T23:48:32.337Z,100990.53
2022-09-06T23:50:58.924Z,101037.84
2022-09-06T23:53:25.598Z,101056.22
2022-09-06T23:55:52.161Z,101061.06
2022-09-06T23:58:18.611Z,100962.78
